METAR Data
IDs: Format: Raw Decoded Include TAF

Data at: 1348 UTC 20 Jul 2019

METAR for:KVTI (Vinton/Veterans Mem, IA, US)
Text:KVTI 201335Z AUTO 20006KT 10SM CLR 28/24 A2980 RMK AO2 T02820242
Temperature: 28.2°C ( 83°F)
Dewpoint: 24.2°C ( 76°F) [RH = 79%]
Pressure (altimeter):29.80 inches Hg (1009.2 mb)
Winds:from the SSW (200 degrees) at 7 MPH (6 knots; 3.1 m/s)
Visibility:10 or more sm (16+ km)
Ceiling:at least 12,000 feet AGL
Clouds:sky clear below 12,000 feet AGL
QC Flag:automated observation with no human augmentation